Nearby METAR Reports

 

KSJC - San Jose, California, USA
Distance from station: NØ 14km
Oppdatert: 14/07/2024 13:53
Overskyet
Overskyet
 Vind fra N
Vind: N 7 km/h
Temperatur: 18°C
Duggpunkt: 14°C
Fuktighet: 78%
Barometer: 1015.6 hPa
Clouds: Overskyet
Visibility: 11 km
Cloud details: Overskyet 305 m
2024/07/14 11:53 KSJC 141153Z AUTO 36004KT 7SM OVC010 18/14 A2999 RMK AO2 SLP155 60000 T01780139 10194 20167 53013
KNUQ - Moffett Nas/Mtn, California, USA
Distance from station: N 14km
Oppdatert: 14/07/2024 13:55
Overskyet
Overskyet
 Vind fra N
Vind: N 13 km/h
Temperatur: 16°C
Duggpunkt: 14°C
Fuktighet: 88%
Barometer: 1015.9 hPa
Clouds: Overskyet
Visibility: 16 km
Cloud details: Overskyet 274 m
2024/07/14 11:55 KNUQ 141155Z AUTO 36007KT 10SM OVC009 16/14 A3000 RMK AO2
KPAO - Palo Alto, California, USA
Distance from station: NNV 23km
Oppdatert: 14/07/2024 05:47
NOT Current
Haze, Hovedsaklig skyet
Haze, Hovedsaklig skyet
 Vind fra NNV
Vind: NNV 20 km/h
Temperatur: 15°C
Duggpunkt: 15°C
Fuktighet: 100%
Barometer: 1014.6 hPa
Oversikt: Haze
Clouds: Hovedsaklig skyet
Visibility: 16 km
Cloud details: Hovedsaklig skyet 3048 m
2024/07/14 03:47 KPAO 140347Z 34011KT 10SM HZ BKN100 15/15 A2996 RMK LAST
 
KRHV - San Jose/Reid, California, USA
Distance from station: ØNØ 19km
Oppdatert: 14/07/2024 06:55
NOT Current
Delvis skyet
Delvis skyet
 Vind fra VNV
Vind: VNV 7 km/h
Temperatur: 21°C
Duggpunkt: 14°C
Fuktighet: 64%
Barometer: 1015.2 hPa
Clouds: Delvis skyet
Visibility: 16 km
Cloud details: Delvis skyet 2438 m
2024/07/14 04:55 KRHV 140455Z 30004KT 10SM SCT080 21/14 A2998 RMK LAST
KOAK - Oakland, California, USA
Distance from station: NNV 50km
Oppdatert: 14/07/2024 13:53
Hovedsaklig skyet
Hovedsaklig skyet
 Vind fra NV
Vind: NV 7 km/h
Temperatur: 16°C
Duggpunkt: 14°C
Fuktighet: 88%
Barometer: 1015.9 hPa
Clouds: Hovedsaklig skyet
Visibility: 16 km
Cloud details: Delvis skyet 152 m
Hovedsaklig skyet 5486 m
2024/07/14 11:53 KOAK 141153Z 32004KT 10SM SCT005 BKN180 16/14 A3000 RMK AO2 SLP158 T01560139 10161 20150 53012
KSQL - San Carlos Airpo, California, USA
Distance from station: NV 34km
Oppdatert: 14/07/2024 13:55
Overskyet
Overskyet
 Vind fra VNV
Vind: VNV 11 km/h
Temperatur: 15°C
Duggpunkt: 13°C
Fuktighet: 88%
Barometer: 1015.9 hPa
Clouds: Overskyet
Cloud details: Overskyet 366 m
2024/07/14 11:55 KSQL 141155Z AUTO 29006KT OVC012 15/13 A3000 RMK AO2
 
KSFO - San Francisco, California, USA
Distance from station: NV 49km
Oppdatert: 14/07/2024 13:56
Hovedsaklig skyet
Hovedsaklig skyet
 Vind fra NV
Vind: NV 11 km/h
Temperatur: 14°C
Duggpunkt: 12°C
Fuktighet: 88%
Barometer: 1015.9 hPa
Clouds: Hovedsaklig skyet
Visibility: 16 km
Cloud details: Few Clouds 183 m
Delvis skyet 305 m
Hovedsaklig skyet 6096 m
2024/07/14 11:56 KSFO 141156Z 31006KT 10SM FEW006 SCT010 BKN200 14/12 A3000 RMK AO2 SLP158 T01390122 10150 20133 53012
KE16 - San Martin, California, USA
Distance from station: ØSØ 43km
Oppdatert: 14/07/2024 13:35
Hovedsaklig skyet
Hovedsaklig skyet
 Vind fra SSØ
Vind: SSØ 9 km/h
Temperatur: 14°C
Duggpunkt: 13°C
Fuktighet: 94%
Barometer: 1016.6 hPa
Clouds: Hovedsaklig skyet
Visibility: 16 km
Cloud details: Hovedsaklig skyet 152 m
2024/07/14 11:35 KE16 141135Z AUTO 15005KT 10SM BKN005 14/13 A3002 RMK AO2 PWINO PNO
KWVI - Watsonville, California, USA
Distance from station: SSØ 44km
Oppdatert: 14/07/2024 13:53
Mist, Overskyet
Mist, Overskyet
 Vind fra SV
Vind: SV 7 km/h
Temperatur: 13°C
Duggpunkt: 13°C
Fuktighet: 100%
Barometer: 1016.9 hPa
Oversikt: Mist
Clouds: Overskyet
Visibility: 6 km
Cloud details: Overskyet 61 m
2024/07/14 11:53 KWVI 141153Z AUTO 23004KT 4SM BR OVC002 13/13 A3003 RMK AO2 SLP169 T01280128 10144 20128 53012
 
KHAF - Half Moon Bay, California, USA
Distance from station: VNV 50km
Oppdatert: 14/07/2024 13:55
Mist, Overskyet
Mist, Overskyet
 Vind fra S
Vind: S 15 km/h
Temperatur: 13°C
Duggpunkt: 13°C
Fuktighet: 100%
Barometer: 1016.6 hPa
Oversikt: Mist
Clouds: Overskyet
Visibility: 2.8 km
Cloud details: Overskyet 122 m
2024/07/14 11:55 KHAF 141155Z AUTO 17008KT 1 3/4SM BR OVC004 13/13 A3002 RMK AO2
KHWD - Hayward, California, USA
Distance from station: N 44km
Oppdatert: 14/07/2024 13:54
Overskyet
Overskyet
 Vind fra NNV
Vind: NNV 17 km/h
Temperatur: 16°C
Duggpunkt: 13°C
Fuktighet: 83%
Barometer: 1015.6 hPa
Clouds: Overskyet
Visibility: 16 km
Cloud details: Overskyet 274 m
2024/07/14 11:54 KHWD 141154Z AUTO 33009KT 10SM OVC009 16/13 A2999 RMK AO2 SLP165 T01610128 10172 20156 53011
KLVK - Livermore, California, USA
Distance from station: NNØ 51km
Oppdatert: 14/07/2024 13:53
Klart
Klart
 Vind fra VNV
Vind: VNV 15 km/h
Temperatur: 16°C
Duggpunkt: 13°C
Fuktighet: 83%
Barometer: 1015.2 hPa
Clouds: Klart
Visibility: 14 km
2024/07/14 11:53 KLVK 141153Z AUTO 29008KT 9SM CLR 16/13 A2998 RMK AO2 SLP145 T01560128 10211 20150 53015